Time;durP1;ratioP1;P1;durP2;ratioP2;P2;SDS_P1;SDS_P2;PMS_P1;PMS_P2;Temp;Humidity;BMP_temperature;BMP_pressure;BME280_temperature;BME280_humidity;BME280_pressure;Samples;Min_cycle;Max_cycle;Signal;HPM_P1;HPM_P2
2021/10/06 00:02:23;;;;;;;;;;;;;;;10.61;96.58;100652.34;5075695;28;20413;-57
2021/10/06 00:04:50;;;;;;;;;;;;;;;10.70;95.94;100658.75;5074024;28;20373;-57
2021/10/06 00:07:17;;;;;;;;;;;;;;;10.64;96.54;100665.28;5072040;28;19970;-57
2021/10/06 00:09:43;;;;;;;;;;;;;;;10.72;97.55;100656.06;5075340;28;19924;-56
2021/10/06 00:12:10;;;;;;;;;;;;;;;10.72;97.62;100656.06;5075471;28;19925;-56
2021/10/06 00:14:36;;;;;;;;;;;;;;;10.65;97.72;100660.88;5075311;28;19928;-50
2021/10/06 00:17:20;;;;;;;;;;;;;;;10.62;98.73;100654.03;5074485;28;19928;-48
2021/10/06 00:19:47;;;;;;;;;;;;;;;10.58;99.30;100657.84;5075219;28;20260;-49
2021/10/06 00:22:13;;;;;;;;;;;;;;;10.60;99.70;100655.91;5075053;28;19924;-51
2021/10/06 00:24:40;;;;;;;;;;;;;;;10.58;99.26;100655.19;5075035;28;19959;-49
2021/10/06 00:27:07;;;;;;;;;;;;;;;10.55;98.15;100658.03;5072854;28;19974;-48
2021/10/06 00:29:33;;;;;;;;;;;;;;;10.60;98.52;100658.56;5071421;28;20264;-48
2021/10/06 00:32:00;;;;;;;;;;;;;;;10.67;97.82;100668.66;5072812;28;19974;-51
2021/10/06 00:34:26;;;;;;;;;;;;;;;10.60;98.24;100653.28;5073469;28;19928;-50
2021/10/06 00:36:53;;;;;;;;;;;;;;;10.49;97.86;100659.28;5072947;28;19932;-51
2021/10/06 00:39:20;;;;;;;;;;;;;;;10.58;97.77;100660.47;5071548;28;19993;-57
2021/10/06 00:41:46;;;;;;;;;;;;;;;10.52;96.99;100660.88;5073362;28;19935;-58
2021/10/06 00:44:14;;;;;;;;;;;;;;;10.59;96.89;100663.91;5073587;28;19925;-58
2021/10/06 00:46:40;;;;;;;;;;;;;;;10.67;96.54;100668.66;5074601;28;19925;-57
2021/10/06 00:49:07;;;;;;;;;;;;;;;10.58;96.99;100659.59;5074104;28;19928;-57
2021/10/06 00:51:33;;;;;;;;;;;;;;;10.56;97.42;100666.75;5074286;28;19925;-57
2021/10/06 00:54:00;;;;;;;;;;;;;;;10.55;96.79;100660.69;5073383;28;19974;-57
2021/10/06 00:56:27;;;;;;;;;;;;;;;10.55;97.05;100662.44;5070989;28;19928;-58
2021/10/06 00:58:54;;;;;;;;;;;;;;;10.54;97.50;100661.63;5104741;28;19924;-58
2021/10/06 01:01:20;;;;;;;;;;;;;;;10.55;97.77;100671.19;5104687;28;20039;-58
2021/10/06 01:03:47;;;;;;;;;;;;;;;10.55;97.17;100672.97;5071629;28;19974;-58
2021/10/06 01:06:14;;;;;;;;;;;;;;;10.56;97.43;100678.13;5074367;28;20395;-58
2021/10/06 01:08:41;;;;;;;;;;;;;;;10.61;96.86;100678.66;5074402;28;20325;-57
2021/10/06 01:11:08;;;;;;;;;;;;;;;10.57;97.64;100674.53;5074347;28;19925;-58
2021/10/06 01:13:35;;;;;;;;;;;;;;;10.61;97.44;100680.44;5071732;28;20437;-58
2021/10/06 01:16:02;;;;;;;;;;;;;;;10.65;96.38;100677.50;5071715;28;19924;-57
2021/10/06 01:18:29;;;;;;;;;;;;;;;10.64;96.54;100675.81;5106024;28;19928;-57
2021/10/06 01:20:55;;;;;;;;;;;;;;;10.61;96.62;100678.66;5074078;28;19974;-58
2021/10/06 01:23:22;;;;;;;;;;;;;;;10.61;96.51;100676.03;5074023;28;19928;-58
2021/10/06 01:25:48;;;;;;;;;;;;;;;10.60;96.49;100684.84;5071914;28;19925;-56
2021/10/06 01:28:15;;;;;;;;;;;;;;;10.64;96.16;100685.50;5068349;28;19936;-57
2021/10/06 01:30:42;;;;;;;;;;;;;;;10.61;95.58;100680.44;5072243;28;20318;-57
2021/10/06 01:33:08;;;;;;;;;;;;;;;10.58;95.64;100689.38;5073540;28;20311;-58
2021/10/06 01:35:35;;;;;;;;;;;;;;;10.60;96.43;100684.84;5073660;28;20390;-58
2021/10/06 01:38:02;;;;;;;;;;;;;;;10.69;95.26;100693.06;5055963;28;20449;-58
2021/10/06 01:40:28;;;;;;;;;;;;;;;10.57;96.46;100690.31;5071696;28;19981;-58
2021/10/06 01:42:55;;;;;;;;;;;;;;;10.68;94.89;100694.84;5070141;28;20439;-57
2021/10/06 01:45:23;;;;;;;;;;;;;;;10.68;94.99;100688.78;5072484;28;19976;-58
2021/10/06 01:47:50;;;;;;;;;;;;;;;10.67;95.56;100687.91;5106084;28;19928;-59
2021/10/06 01:50:25;;;;;;;;;;;;;;;10.68;95.51;100696.66;5072091;28;19982;-58
2021/10/06 01:52:52;;;;;;;;;;;;;;;10.66;96.75;100694.09;5105693;28;19978;-58
2021/10/06 01:55:26;;;;;;;;;;;;;;;10.64;96.82;100696.00;5105816;28;19931;-58
2021/10/06 01:57:53;;;;;;;;;;;;;;;10.56;97.74;100690.44;5073179;28;19931;-58
2021/10/06 02:00:20;;;;;;;;;;;;;;;10.62;97.85;100693.50;5073300;28;20392;-56
2021/10/06 02:02:46;;;;;;;;;;;;;;;10.57;98.04;100690.31;5070926;28;19932;-48
2021/10/06 02:05:13;;;;;;;;;;;;;;;10.58;98.79;100689.38;5069172;28;19924;-46
2021/10/06 02:07:40;;;;;;;;;;;;;;;10.55;98.61;100692.22;5070682;28;19925;-50
2021/10/06 02:10:07;;;;;;;;;;;;;;;10.53;98.63;100695.91;5073061;28;19935;-50
2021/10/06 02:12:33;;;;;;;;;;;;;;;10.53;98.27;100696.75;5073207;28;19929;-48
2021/10/06 02:15:00;;;;;;;;;;;;;;;10.52;98.09;100696.84;5072087;28;19947;-48
2021/10/06 02:17:27;;;;;;;;;;;;;;;10.58;98.47;100685.91;5072965;28;19994;-57
2021/10/06 02:19:53;;;;;;;;;;;;;;;10.54;98.75;100690.53;5072997;28;19924;-57
2021/10/06 02:22:20;;;;;;;;;;;;;;;10.55;98.74;100686.97;5072968;28;19924;-58
2021/10/06 02:24:47;;;;;;;;;;;;;;;10.59;98.59;100693.72;5072603;28;19964;-58
2021/10/06 02:27:13;;;;;;;;;;;;;;;10.52;98.69;100696.84;5068756;28;19932;-56
2021/10/06 02:29:40;;;;;;;;;;;;;;;10.38;98.51;100688.09;5068933;28;19924;-57
2021/10/06 02:32:06;;;;;;;;;;;;;;;10.46;98.43;100692.84;5071765;28;20011;-57
2021/10/06 02:34:33;;;;;;;;;;;;;;;10.45;98.49;100688.53;5070077;28;19928;-58
2021/10/06 02:37:00;;;;;;;;;;;;;;;10.42;98.98;100686.09;5071729;28;20410;-49
2021/10/06 02:39:27;;;;;;;;;;;;;;;10.43;97.94;100690.41;5072904;28;19932;-49
2021/10/06 02:41:54;;;;;;;;;;;;;;;10.41;98.29;100687.03;5104473;28;19931;-52
2021/10/06 02:44:20;;;;;;;;;;;;;;;10.37;98.80;100694.28;5072371;28;19925;-50
2021/10/06 02:46:47;;;;;;;;;;;;;;;10.36;98.65;100695.25;5071725;28;19944;-52
2021/10/06 02:49:13;;;;;;;;;;;;;;;10.40;99.06;100695.88;5069719;28;19956;-53
2021/10/06 02:51:40;;;;;;;;;;;;;;;10.41;98.33;100694.94;5104237;28;19963;-46
2021/10/06 02:54:07;;;;;;;;;;;;;;;10.40;98.83;100698.50;5069565;28;19974;-45
2021/10/06 02:56:33;;;;;;;;;;;;;;;10.44;98.66;100690.31;5069469;28;20342;-57
2021/10/06 02:59:00;;;;;;;;;;;;;;;10.45;98.71;100691.16;5072100;28;19929;-58
2021/10/06 03:01:26;;;;;;;;;;;;;;;10.35;99.32;100696.19;5070736;28;19958;-57
2021/10/06 03:03:54;;;;;;;;;;;;;;;10.37;99.35;100693.44;5070726;28;19924;-57
2021/10/06 03:06:20;;;;;;;;;;;;;;;10.45;99.32;100699.03;5071270;28;19924;-57
2021/10/06 03:08:47;;;;;;;;;;;;;;;10.34;98.92;100693.63;5072350;28;20405;-57
2021/10/06 03:11:14;;;;;;;;;;;;;;;10.33;98.38;100700.66;5069234;28;19974;-57
2021/10/06 03:13:40;;;;;;;;;;;;;;;10.35;99.18;100706.69;5069953;28;19932;-57
2021/10/06 03:16:08;;;;;;;;;;;;;;;10.40;99.31;100709.88;5072470;28;19929;-56
2021/10/06 03:18:34;;;;;;;;;;;;;;;10.47;98.34;100707.66;5072442;28;19925;-57
2021/10/06 03:21:01;;;;;;;;;;;;;;;10.41;98.46;100705.44;5072334;28;19978;-57
2021/10/06 03:23:27;;;;;;;;;;;;;;;10.44;99.18;100706.09;5072569;28;20718;-58
2021/10/06 03:25:54;;;;;;;;;;;;;;;10.35;99.49;100701.44;5071336;28;20003;-58
2021/10/06 03:28:21;;;;;;;;;;;;;;;10.38;98.98;100706.50;5067026;28;20383;-58
2021/10/06 03:30:48;;;;;;;;;;;;;;;10.39;99.77;100717.84;5070582;28;20007;-57
2021/10/06 03:33:14;;;;;;;;;;;;;;;10.44;99.38;100707.88;5072014;28;19924;-57
2021/10/06 03:35:41;;;;;;;;;;;;;;;10.42;98.32;100710.59;5087525;28;19932;-57
2021/10/06 03:38:08;;;;;;;;;;;;;;;10.47;99.57;100713.78;5071289;28;20326;-58
2021/10/06 03:40:35;;;;;;;;;;;;;;;10.38;99.79;100726.69;5072581;28;19978;-58
2021/10/06 03:43:01;;;;;;;;;;;;;;;10.37;99.16;100719.75;5070835;28;19924;-58
2021/10/06 03:45:28;;;;;;;;;;;;;;;10.36;99.89;100715.41;5072120;28;20371;-58
2021/10/06 03:47:55;;;;;;;;;;;;;;;10.39;99.81;100728.34;5069812;28;20307;-58
2021/10/06 03:50:21;;;;;;;;;;;;;;;10.34;99.59;100728.63;5069510;28;19970;-58
2021/10/06 03:52:48;;;;;;;;;;;;;;;10.34;100.00;100717.28;5073383;28;19931;-58
2021/10/06 03:55:15;;;;;;;;;;;;;;;10.31;100.00;100727.06;5075665;28;19925;-58
2021/10/06 03:57:41;;;;;;;;;;;;;;;10.41;99.46;100734.38;5075561;28;19930;-57
2021/10/06 04:00:09;;;;;;;;;;;;;;;10.43;99.22;100735.09;5075657;28;19924;-58
2021/10/06 04:02:35;;;;;;;;;;;;;;;10.36;100.00;100734.69;5075713;28;20327;-56
2021/10/06 04:05:02;;;;;;;;;;;;;;;10.40;100.00;100741.44;5075322;28;19928;-55
2021/10/06 04:07:29;;;;;;;;;;;;;;;10.42;100.00;100743.94;5106855;28;19929;-58
2021/10/06 04:09:56;;;;;;;;;;;;;;;10.23;100.00;100731.97;5072527;28;19931;-55
2021/10/06 04:12:22;;;;;;;;;;;;;;;10.25;100.00;100724.84;5073344;28;19931;-57
2021/10/06 04:14:49;;;;;;;;;;;;;;;10.29;100.00;100726.31;5075207;28;19924;-57
2021/10/06 04:17:15;;;;;;;;;;;;;;;10.27;100.00;100732.63;5075340;28;19935;-57
2021/10/06 04:19:42;;;;;;;;;;;;;;;10.26;100.00;100729.13;5073960;28;20396;-57
2021/10/06 04:22:09;;;;;;;;;;;;;;;10.29;100.00;100722.84;5073293;28;19934;-57
2021/10/06 04:24:36;;;;;;;;;;;;;;;10.19;100.00;100743.63;5072654;28;19925;-55
2021/10/06 04:27:03;;;;;;;;;;;;;;;10.15;100.00;100757.91;5072534;28;19924;-57
2021/10/06 04:29:29;;;;;;;;;;;;;;;10.18;100.00;100756.88;5075142;28;19936;-57
2021/10/06 04:31:56;;;;;;;;;;;;;;;10.24;100.00;100741.53;5073772;28;20404;-58
2021/10/06 04:34:23;;;;;;;;;;;;;;;10.20;100.00;100754.97;5074787;28;20319;-58
2021/10/06 04:36:50;;;;;;;;;;;;;;;10.21;100.00;100760.16;5074541;28;19946;-57
2021/10/06 04:39:16;;;;;;;;;;;;;;;10.18;100.00;100752.44;5106500;28;19929;-57
2021/10/06 04:41:43;;;;;;;;;;;;;;;10.14;100.00;100745.69;5073114;28;19970;-57
2021/10/06 04:44:09;;;;;;;;;;;;;;;10.18;100.00;100741.94;5090153;28;19970;-58
2021/10/06 04:46:36;;;;;;;;;;;;;;;10.11;100.00;100740.66;5074400;28;19924;-57
2021/10/06 04:49:03;;;;;;;;;;;;;;;10.04;100.00;100755.97;5072187;28;19929;-57
2021/10/06 04:51:30;;;;;;;;;;;;;;;10.07;100.00;100768.06;5072410;28;19925;-57
2021/10/06 04:53:56;;;;;;;;;;;;;;;10.06;100.00;100764.63;5106920;28;19967;-57
2021/10/06 04:56:23;;;;;;;;;;;;;;;10.11;100.00;100759.06;5072803;28;19978;-58
2021/10/06 04:58:50;;;;;;;;;;;;;;;10.07;100.00;100761.03;5070589;28;20360;-57
2021/10/06 05:01:16;;;;;;;;;;;;;;;10.09;100.00;100753.91;5105812;28;19929;-57
2021/10/06 05:03:43;;;;;;;;;;;;;;;10.12;100.00;100755.47;5073833;28;19931;-58
2021/10/06 05:06:12;;;;;;;;;;;;;;;10.10;100.00;100744.22;5072237;28;19924;-57
2021/10/06 05:08:39;;;;;;;;;;;;;;;10.10;100.00;100750.34;5071667;28;19986;-57
2021/10/06 05:11:05;;;;;;;;;;;;;;;10.13;100.00;100765.06;5073558;28;19932;-57
2021/10/06 05:13:32;;;;;;;;;;;;;;;10.13;100.00;100750.13;5074246;28;19970;-57
2021/10/06 05:15:59;;;;;;;;;;;;;;;10.06;100.00;100745.34;5073801;28;19932;-51
2021/10/06 05:18:25;;;;;;;;;;;;;;;10.07;100.00;100757.56;5071610;28;19954;-49
2021/10/06 05:20:52;;;;;;;;;;;;;;;10.02;100.00;100764.88;5072637;28;19925;-51
2021/10/06 05:23:18;;;;;;;;;;;;;;;10.08;100.00;100764.50;5071936;28;19924;-49
2021/10/06 05:25:45;;;;;;;;;;;;;;;10.12;100.00;100758.94;5103509;28;19928;-50
2021/10/06 05:28:12;;;;;;;;;;;;;;;10.10;100.00;100759.97;5073193;28;19974;-48
2021/10/06 05:30:38;;;;;;;;;;;;;;;10.03;100.00;100764.78;5074165;28;20571;-53
2021/10/06 05:33:05;;;;;;;;;;;;;;;9.92;100.00;100768.09;5073223;28;19969;-52
2021/10/06 05:35:32;;;;;;;;;;;;;;;9.94;100.00;100766.22;5070164;28;19978;-49
2021/10/06 05:37:58;;;;;;;;;;;;;;;9.95;100.00;100770.56;5072686;28;20383;-52
2021/10/06 05:40:25;;;;;;;;;;;;;;;9.95;100.00;100767.91;5071473;28;19925;-51
2021/10/06 05:42:51;;;;;;;;;;;;;;;9.92;100.00;100762.84;5070492;28;19925;-53
2021/10/06 05:45:18;;;;;;;;;;;;;;;9.98;100.00;100754.59;5072713;28;19924;-47
2021/10/06 05:47:45;;;;;;;;;;;;;;;9.97;100.00;100729.25;5071095;28;19929;-49
2021/10/06 05:50:12;;;;;;;;;;;;;;;9.94;100.00;100758.34;5071793;28;19964;-51
2021/10/06 05:52:38;;;;;;;;;;;;;;;9.97;100.00;100754.69;5105927;28;20452;-47
2021/10/06 05:55:05;;;;;;;;;;;;;;;9.93;100.00;100748.78;5105863;28;19948;-50
2021/10/06 05:57:32;;;;;;;;;;;;;;;9.87;100.00;100759.69;5105745;28;19932;-46
2021/10/06 05:59:58;;;;;;;;;;;;;;;9.75;100.00;100755.22;5072832;28;20287;-49
2021/10/06 06:02:25;;;;;;;;;;;;;;;9.81;100.00;100752.19;5086095;28;19970;-51
2021/10/06 06:04:52;;;;;;;;;;;;;;;9.83;100.00;100755.56;5071394;28;19928;-51
2021/10/06 06:07:18;;;;;;;;;;;;;;;9.80;100.00;100759.22;5073208;28;19925;-57
2021/10/06 06:09:45;;;;;;;;;;;;;;;9.85;100.00;100764.19;5073110;28;19970;-58
2021/10/06 06:12:11;;;;;;;;;;;;;;;9.86;100.00;100762.38;5071826;28;19932;-58
2021/10/06 06:14:39;;;;;;;;;;;;;;;9.84;100.00;100751.16;5072741;28;19932;-58
2021/10/06 06:17:06;;;;;;;;;;;;;;;9.87;100.00;100764.94;5071880;28;19932;-58
2021/10/06 06:19:33;;;;;;;;;;;;;;;9.85;100.00;100771.22;5072979;28;19935;-58
2021/10/06 06:21:59;;;;;;;;;;;;;;;9.79;100.00;100767.22;5072839;28;19978;-51
2021/10/06 06:24:26;;;;;;;;;;;;;;;9.82;100.00;100770.47;5070928;28;19929;-52
2021/10/06 06:26:53;;;;;;;;;;;;;;;9.86;100.00;100759.75;5068202;28;19931;-50
2021/10/06 06:29:20;;;;;;;;;;;;;;;9.82;100.00;100767.84;5073169;28;19925;-47
2021/10/06 06:31:47;;;;;;;;;;;;;;;9.89;100.00;100770.09;5071551;28;19924;-47
2021/10/06 06:34:14;;;;;;;;;;;;;;;9.86;100.00;100768.50;5072768;28;20272;-48
2021/10/06 06:36:43;;;;;;;;;;;;;;;9.86;100.00;100768.50;5072267;28;20453;-49
2021/10/06 06:39:10;;;;;;;;;;;;;;;9.92;100.00;100773.34;5070290;28;20304;-57
2021/10/06 06:41:36;;;;;;;;;;;;;;;9.82;100.00;100772.25;5070518;28;19924;-58
2021/10/06 06:44:03;;;;;;;;;;;;;;;9.91;100.00;100778.72;5072024;28;19990;-58
2021/10/06 06:46:30;;;;;;;;;;;;;;;9.87;100.00;100783.34;5071042;28;19924;-58
2021/10/06 06:48:57;;;;;;;;;;;;;;;9.86;100.00;100784.25;5070170;28;19925;-57
2021/10/06 06:51:23;;;;;;;;;;;;;;;9.80;100.00;100780.25;5071946;28;19925;-58
2021/10/06 06:53:52;;;;;;;;;;;;;;;9.84;100.00;100791.38;5104662;28;20507;-57
2021/10/06 06:56:18;;;;;;;;;;;;;;;9.83;100.00;100784.47;5069520;28;19924;-56
2021/10/06 06:58:45;;;;;;;;;;;;;;;9.78;100.00;100786.53;5069779;28;19978;-58
2021/10/06 07:01:12;;;;;;;;;;;;;;;9.82;100.00;100794.09;5072450;28;19924;-57
2021/10/06 07:03:39;;;;;;;;;;;;;;;9.85;100.00;100800.97;5072455;28;20104;-58
2021/10/06 07:06:06;;;;;;;;;;;;;;;9.86;100.00;100804.41;5071795;28;19925;-57
2021/10/06 07:08:32;;;;;;;;;;;;;;;9.90;100.00;100803.31;5104384;28;19930;-57
2021/10/06 07:10:59;;;;;;;;;;;;;;;9.82;100.00;100804.63;5104674;28;19947;-57
2021/10/06 07:13:29;;;;;;;;;;;;;;;9.81;100.00;100802.91;5086531;28;20359;-57
2021/10/06 07:15:55;;;;;;;;;;;;;;;9.78;100.00;100811.00;5102410;28;19924;-58
2021/10/06 07:18:22;;;;;;;;;;;;;;;9.79;100.00;100820.56;5071442;28;19924;-57
2021/10/06 07:20:48;;;;;;;;;;;;;;;9.89;100.00;100822.63;5072591;28;19967;-57
2021/10/06 07:23:15;;;;;;;;;;;;;;;9.91;100.00;100829.47;5069573;28;19977;-57
2021/10/06 07:25:42;;;;;;;;;;;;;;;10.07;100.00;100828.50;5068952;28;19931;-58
2021/10/06 07:28:08;;;;;;;;;;;;;;;10.11;100.00;100820.31;5075823;28;19971;-56
2021/10/06 07:30:35;;;;;;;;;;;;;;;10.05;100.00;100823.34;5076232;28;20349;-58
2021/10/06 07:33:02;;;;;;;;;;;;;;;10.15;100.00;100827.06;5076282;28;19931;-58
2021/10/06 07:35:28;;;;;;;;;;;;;;;10.13;100.00;100828.97;5076076;28;19924;-58
2021/10/06 07:37:55;;;;;;;;;;;;;;;10.21;100.00;100833.75;5076110;28;19978;-58
2021/10/06 07:40:22;;;;;;;;;;;;;;;10.20;100.00;100834.69;5075995;28;20280;-58
2021/10/06 07:42:49;;;;;;;;;;;;;;;10.21;100.00;100841.63;5076030;28;20402;-58
2021/10/06 07:45:16;;;;;;;;;;;;;;;10.30;100.00;100834.94;5108332;28;19929;-57
2021/10/06 07:47:42;;;;;;;;;;;;;;;10.38;100.00;100847.63;5073872;28;19925;-58
2021/10/06 07:50:09;;;;;;;;;;;;;;;10.41;100.00;100840.38;5105946;28;19963;-57
2021/10/06 07:52:36;;;;;;;;;;;;;;;10.40;100.00;100843.09;5075855;28;20391;-57
2021/10/06 07:55:05;;;;;;;;;;;;;;;10.37;100.00;100851.19;5075648;28;19966;-58
2021/10/06 07:57:31;;;;;;;;;;;;;;;10.47;100.00;100854.88;5073472;28;20414;-58
2021/10/06 07:59:58;;;;;;;;;;;;;;;10.43;100.00;100856.91;5072409;28;19932;-58
2021/10/06 08:02:26;;;;;;;;;;;;;;;10.42;100.00;100864.88;5074615;28;19950;-58
2021/10/06 08:04:52;;;;;;;;;;;;;;;10.46;100.00;100871.63;5075543;28;19932;-57
2021/10/06 08:07:19;;;;;;;;;;;;;;;10.37;100.00;100874.84;5075468;28;19925;-58
2021/10/06 08:09:46;;;;;;;;;;;;;;;10.37;100.00;100872.22;5107294;28;19924;-58
2021/10/06 08:12:12;;;;;;;;;;;;;;;10.38;100.00;100880.00;5086943;28;19925;-57
2021/10/06 08:14:39;;;;;;;;;;;;;;;10.43;100.00;100882.31;5073524;28;20261;-58
2021/10/06 08:17:05;;;;;;;;;;;;;;;10.38;100.00;100881.78;5075337;28;19932;-58
2021/10/06 08:19:32;;;;;;;;;;;;;;;10.37;100.00;100882.72;5075347;28;19933;-58
2021/10/06 08:21:59;;;;;;;;;;;;;;;10.32;100.00;100881.22;5073637;28;19967;-57
2021/10/06 08:24:30;;;;;;;;;;;;;;;10.33;100.00;100887.28;5074643;28;19924;-57
2021/10/06 08:26:56;;;;;;;;;;;;;;;10.39;100.00;100892.22;5074692;28;20292;-58
2021/10/06 08:29:23;;;;;;;;;;;;;;;10.42;100.00;100893.81;5105069;28;20701;-58
2021/10/06 08:31:50;;;;;;;;;;;;;;;10.54;100.00;100893.03;5072477;28;20299;-57
2021/10/06 08:34:16;;;;;;;;;;;;;;;10.47;100.00;100900.47;5074997;28;20322;-58
2021/10/06 08:36:43;;;;;;;;;;;;;;;10.58;100.00;100902.41;5074237;28;19924;-58
2021/10/06 08:39:09;;;;;;;;;;;;;;;10.55;100.00;100902.59;5074407;28;20045;-57
2021/10/06 08:41:36;;;;;;;;;;;;;;;10.57;100.00;100911.22;5074981;28;19925;-57
2021/10/06 08:44:03;;;;;;;;;;;;;;;10.56;100.00;100904.28;5072104;28;19924;-57
2021/10/06 08:46:30;;;;;;;;;;;;;;;10.56;100.00;100917.41;5072240;28;19925;-57
2021/10/06 08:48:57;;;;;;;;;;;;;;;10.64;100.00;100912.50;5074617;28;20272;-57
2021/10/06 08:51:23;;;;;;;;;;;;;;;10.72;100.00;100921.72;5074733;28;19925;-58
2021/10/06 08:53:50;;;;;;;;;;;;;;;10.70;100.00;100921.78;5073555;28;19925;-57
2021/10/06 08:56:17;;;;;;;;;;;;;;;10.73;100.00;100912.84;5072509;28;20019;-58
2021/10/06 08:58:44;;;;;;;;;;;;;;;10.78;100.00;100927.44;5103094;28;19924;-58
2021/10/06 09:01:21;;;;;;;;;;;;;;;10.82;100.00;100923.66;5074315;28;19974;-58
2021/10/06 09:03:52;;;;;;;;;;;;;;;10.82;100.00;100925.41;5106513;28;19951;-58
2021/10/06 09:06:19;;;;;;;;;;;;;;;10.86;100.00;100924.28;5073862;28;20300;-58
2021/10/06 09:08:46;;;;;;;;;;;;;;;10.86;100.00;100928.72;5106570;28;19925;-58
2021/10/06 09:11:14;;;;;;;;;;;;;;;10.87;100.00;100927.78;5071811;28;19932;-57
2021/10/06 09:13:42;;;;;;;;;;;;;;;10.86;100.00;100929.53;5070629;28;19928;-58
2021/10/06 09:16:09;;;;;;;;;;;;;;;10.85;100.00;100938.38;5074169;28;19988;-58
2021/10/06 09:18:36;;;;;;;;;;;;;;;10.96;100.00;100941.16;5074660;28;19932;-59
2021/10/06 09:21:07;;;;;;;;;;;;;;;10.94;100.00;100935.16;5074091;28;19931;-58
2021/10/06 09:23:38;;;;;;;;;;;;;;;10.94;100.00;100940.41;5071646;28;19924;-58
2021/10/06 09:26:05;;;;;;;;;;;;;;;10.93;100.00;100938.72;5071402;28;20310;-57
2021/10/06 09:28:34;;;;;;;;;;;;;;;11.03;100.00;100946.00;5105919;28;19931;-58
2021/10/06 09:31:14;;;;;;;;;;;;;;;11.05;100.00;100949.41;5071985;28;19924;-57
2021/10/06 09:33:43;;;;;;;;;;;;;;;11.10;100.00;100957.84;5106012;28;19924;-58
2021/10/06 09:36:14;;;;;;;;;;;;;;;11.16;100.00;100965.31;5089350;28;19929;-58
2021/10/06 09:38:41;;;;;;;;;;;;;;;11.21;100.00;100965.88;5073738;28;19932;-58
2021/10/06 09:41:26;;;;;;;;;;;;;;;11.21;100.00;100973.78;5073728;28;19951;-58
2021/10/06 09:43:59;;;;;;;;;;;;;;;11.32;100.00;100973.91;5106096;28;19928;-58
2021/10/06 09:46:47;;;;;;;;;;;;;;;11.36;100.00;100981.59;5071459;28;19925;-58
2021/10/06 09:49:18;;;;;;;;;;;;;;;11.42;100.00;100974.13;5070963;28;19924;-58
2021/10/06 09:51:45;;;;;;;;;;;;;;;11.62;100.00;100985.13;5071427;28;19950;-58
2021/10/06 09:54:11;;;;;;;;;;;;;;;11.74;100.00;100984.31;5071927;28;19959;-58
2021/10/06 09:56:42;;;;;;;;;;;;;;;12.00;100.00;100998.34;5102882;28;20416;-58
2021/10/06 09:59:08;;;;;;;;;;;;;;;12.13;100.00;101000.16;5104921;28;19954;-58
2021/10/06 10:01:37;;;;;;;;;;;;;;;12.10;100.00;101003.00;5105627;28;20357;-57
2021/10/06 10:04:04;;;;;;;;;;;;;;;12.02;100.00;101011.44;5073175;28;19924;-58
2021/10/06 10:06:31;;;;;;;;;;;;;;;11.99;100.00;101006.38;5073247;28;19928;-58
2021/10/06 10:08:58;;;;;;;;;;;;;;;12.03;100.00;101009.66;5071946;28;19924;-57
2021/10/06 10:11:25;;;;;;;;;;;;;;;12.08;100.00;101020.69;5105677;28;20312;-57
2021/10/06 10:13:51;;;;;;;;;;;;;;;12.03;100.00;101017.56;5073140;28;19931;-57
2021/10/06 10:16:18;;;;;;;;;;;;;;;12.11;100.00;101028.44;5105538;28;19928;-57
2021/10/06 10:18:45;;;;;;;;;;;;;;;12.09;100.00;101025.91;5105822;28;19948;-57
2021/10/06 10:21:12;;;;;;;;;;;;;;;12.02;100.00;101027.25;5073349;28;20444;-58
2021/10/06 10:23:39;;;;;;;;;;;;;;;12.08;100.00;101029.47;5086969;28;20589;-58
2021/10/06 10:26:05;;;;;;;;;;;;;;;12.11;100.00;101031.06;5085362;28;19932;-57
2021/10/06 10:28:37;;;;;;;;;;;;;;;12.13;100.00;101039.69;5087686;28;19924;-56
2021/10/06 10:31:04;;;;;;;;;;;;;;;12.18;100.00;101038.41;5072555;28;19990;-57
2021/10/06 10:33:44;;;;;;;;;;;;;;;12.22;100.00;101039.06;5072605;28;20391;-58
2021/10/06 10:36:44;;;;;;;;;;;;;;;12.18;100.00;101050.78;5072782;28;19958;-48
2021/10/06 10:39:30;;;;;;;;;;;;;;;12.21;100.00;101053.19;5068806;28;19925;-49
2021/10/06 10:41:57;;;;;;;;;;;;;;;12.28;100.00;101057.09;5070542;28;19970;-52
2021/10/06 10:44:24;;;;;;;;;;;;;;;12.41;100.00;101054.47;5105168;28;20011;-49
2021/10/06 10:46:57;;;;;;;;;;;;;;;12.58;100.00;101061.19;5105002;28;20045;-50
2021/10/06 10:49:24;;;;;;;;;;;;;;;12.68;100.00;101067.50;5072770;28;19930;-53
2021/10/06 10:51:58;;;;;;;;;;;;;;;12.73;100.00;101079.53;5072581;28;20426;-52
2021/10/06 10:54:27;;;;;;;;;;;;;;;12.91;100.00;101072.09;5072863;28;19924;-54
2021/10/06 10:56:54;;;;;;;;;;;;;;;12.97;100.00;101079.59;5072780;28;19931;-49
2021/10/06 10:59:21;;;;;;;;;;;;;;;13.04;100.00;101088.75;5073030;28;19948;-50
2021/10/06 11:01:48;;;;;;;;;;;;;;;13.08;100.00;101081.47;5074016;28;20283;-48
2021/10/06 11:04:16;;;;;;;;;;;;;;;13.63;99.48;101079.25;5076055;28;19929;-57
2021/10/06 11:06:44;;;;;;;;;;;;;;;14.23;97.43;101077.34;5072965;28;20302;-58
2021/10/06 11:09:29;;;;;;;;;;;;;;;14.33;94.62;101083.63;5075112;28;20046;-46
2021/10/06 11:12:19;;;;;;;;;;;;;;;14.60;95.63;101081.59;5076692;28;20290;-48
2021/10/06 11:14:46;;;;;;;;;;;;;;;14.73;92.53;101079.72;5070011;28;19925;-46
2021/10/06 11:17:17;;;;;;;;;;;;;;;14.65;91.52;101084.78;5075474;28;19924;-48
2021/10/06 11:19:45;;;;;;;;;;;;;;;14.79;92.49;101089.81;5074018;28;19925;-48
2021/10/06 11:22:20;;;;;;;;;;;;;;;14.76;91.79;101094.50;5074035;28;20765;-56
2021/10/06 11:24:50;;;;;;;;;;;;;;;14.72;88.55;101088.59;5076072;28;19970;-57
2021/10/06 11:27:17;;;;;;;;;;;;;;;14.82;90.22;101094.00;5076011;28;20406;-56
2021/10/06 11:29:44;;;;;;;;;;;;;;;15.06;88.38;101093.88;5074725;28;20284;-55
2021/10/06 11:32:11;;;;;;;;;;;;;;;14.88;89.68;101107.59;5073099;28;19928;-55
2021/10/06 11:34:44;;;;;;;;;;;;;;;14.83;89.76;101111.59;5074405;28;19924;-57
2021/10/06 11:37:15;;;;;;;;;;;;;;;14.74;89.87;101114.94;5076190;28;20346;-56
2021/10/06 11:39:42;;;;;;;;;;;;;;;14.80;88.57;101112.66;5076068;28;19928;-56
2021/10/06 11:42:09;;;;;;;;;;;;;;;15.61;86.54;101117.72;5076061;28;19948;-57
2021/10/06 11:44:36;;;;;;;;;;;;;;;16.21;84.67;101111.88;5075961;28;19924;-56
2021/10/06 11:47:06;;;;;;;;;;;;;;;16.87;83.50;101131.91;5074614;28;20734;-48
2021/10/06 11:49:34;;;;;;;;;;;;;;;17.05;81.65;101134.81;5076100;28;19974;-50
2021/10/06 11:52:01;;;;;;;;;;;;;;;17.14;79.33;101138.44;5075920;28;19994;-49
2021/10/06 11:54:28;;;;;;;;;;;;;;;17.45;78.14;101138.38;5073020;28;19924;-47
2021/10/06 11:56:55;;;;;;;;;;;;;;;17.46;79.37;101142.72;5105833;28;20445;-48
2021/10/06 11:59:25;;;;;;;;;;;;;;;17.10;78.34;101153.84;5075926;28;20395;-48
2021/10/06 12:02:02;;;;;;;;;;;;;;;16.64;80.45;101147.19;5075744;28;20010;-50
2021/10/06 12:04:32;;;;;;;;;;;;;;;16.26;81.68;101154.78;5075351;28;19928;-48
2021/10/06 12:06:59;;;;;;;;;;;;;;;16.43;79.73;101166.66;5072672;28;19928;-56
2021/10/06 12:09:27;;;;;;;;;;;;;;;16.36;80.69;101161.00;5073560;28;19929;-57
2021/10/06 12:11:54;;;;;;;;;;;;;;;16.43;81.26;101165.78;5107732;28;19924;-57
2021/10/06 12:14:32;;;;;;;;;;;;;;;16.43;80.55;101163.13;5072928;28;19931;-56
2021/10/06 12:17:00;;;;;;;;;;;;;;;16.52;79.25;101170.31;5075208;28;19925;-56
2021/10/06 12:19:26;;;;;;;;;;;;;;;16.33;81.37;101171.91;5075611;28;19924;-56
2021/10/06 12:21:53;;;;;;;;;;;;;;;16.52;80.75;101170.31;5074277;28;19977;-56
2021/10/06 12:24:21;;;;;;;;;;;;;;;17.23;78.55;101172.19;5075163;28;19928;-55
2021/10/06 12:26:48;;;;;;;;;;;;;;;17.69;75.91;101170.75;5075455;28;20330;-56
2021/10/06 12:29:15;;;;;;;;;;;;;;;17.75;76.47;101166.69;5090789;28;19928;-57
2021/10/06 12:31:42;;;;;;;;;;;;;;;17.69;77.44;101168.09;5075199;28;20448;-57
2021/10/06 12:34:13;;;;;;;;;;;;;;;17.49;77.66;101177.00;5074943;28;20401;-56
2021/10/06 12:36:50;;;;;;;;;;;;;;;17.14;78.28;101175.66;5105870;28;19928;-57